Time;durP1;ratioP1;P1;durP2;ratioP2;P2;SDS_P1;SDS_P2;PMS_P1;PMS_P2;Temp;Humidity;BMP_temperature;BMP_pressure;BME280_temperature;BME280_humidity;BME280_pressure;Samples;Min_cycle;Max_cycle;Signal;HPM_P1;HPM_P2
2023/02/07 00:01:25;;;;;;;;;;;;;;;28.42;66.13;100953.97;5092155;27;71618;-39
2023/02/07 00:03:56;;;;;;;;;;;;;;;28.47;66.28;100965.00;5099800;27;66217;-43
2023/02/07 00:06:28;;;;;;;;;;;;;;;28.51;67.48;100960.84;5095592;27;70977;-40
2023/02/07 00:09:01;;;;;;;;;;;;;;;27.78;67.61;100843.69;5100584;27;66962;-41
2023/02/07 00:11:32;;;;;;;;;;;;;;;28.67;67.77;100970.44;5096744;27;69915;-43
2023/02/07 00:14:04;;;;;;;;;;;;;;;28.73;67.45;100975.03;5079445;27;66127;-41
2023/02/07 00:16:34;;;;;;;;;;;;;;;28.79;67.38;100977.94;5097387;27;69320;-42
2023/02/07 00:19:04;;;;;;;;;;;;;;;28.80;67.37;100985.84;5094401;27;66831;-41
2023/02/07 00:21:34;;;;;;;;;;;;;;;28.80;67.25;100983.13;5083371;27;69244;-41
2023/02/07 00:24:06;;;;;;;;;;;;;;;28.82;67.16;100989.16;5088462;27;67118;-42
2023/02/07 00:26:36;;;;;;;;;;;;;;;28.85;67.21;100986.06;5090036;27;71080;-40
2023/02/07 00:29:06;;;;;;;;;;;;;;;28.87;66.97;100994.78;5092907;27;66090;-41
2023/02/07 00:31:38;;;;;;;;;;;;;;;28.89;67.51;100992.72;5098389;27;70287;-41
2023/02/07 00:34:09;;;;;;;;;;;;;;;28.91;67.55;100996.03;5094741;27;66198;-40
2023/02/07 00:36:40;;;;;;;;;;;;;;;28.93;67.54;101002.06;5095238;27;69687;-40
2023/02/07 00:39:11;;;;;;;;;;;;;;;28.93;67.16;100998.53;5095400;27;65197;-40
2023/02/07 00:41:42;;;;;;;;;;;;;;;28.95;67.33;101008.09;5099436;27;70466;-39
2023/02/07 00:44:12;;;;;;;;;;;;;;;28.95;66.55;101013.50;5093596;27;66415;-42
2023/02/07 00:46:42;;;;;;;;;;;;;;;28.91;65.65;101017.63;5092375;27;69020;-41
2023/02/07 00:49:13;;;;;;;;;;;;;;;28.91;64.79;101022.22;5077449;27;66892;-40
2023/02/07 00:51:43;;;;;;;;;;;;;;;28.93;63.86;101023.66;5093516;27;70339;-42
2023/02/07 00:54:13;;;;;;;;;;;;;;;28.95;63.99;101029.72;5076305;27;66448;-41
2023/02/07 00:56:47;;;;;;;;;;;;;;;28.98;63.10;101031.19;5094962;27;63960;-41
2023/02/07 00:59:17;;;;;;;;;;;;;;;28.98;62.88;101033.88;5092298;27;65654;-40
2023/02/07 01:01:47;;;;;;;;;;;;;;;29.00;62.58;101039.06;5096397;27;71017;-40
2023/02/07 01:04:17;;;;;;;;;;;;;;;29.01;62.51;101049.66;5088514;27;65481;-40
2023/02/07 01:06:48;;;;;;;;;;;;;;;29.04;62.16;101053.88;5097313;27;70235;-40
2023/02/07 01:09:18;;;;;;;;;;;;;;;29.05;62.05;101055.50;5069104;27;66459;-40
2023/02/07 01:11:49;;;;;;;;;;;;;;;29.08;61.97;101065.91;5094725;27;70048;-40
2023/02/07 01:14:19;;;;;;;;;;;;;;;29.10;61.75;101063.84;5098172;27;66708;-40
2023/02/07 01:16:49;;;;;;;;;;;;;;;29.11;62.13;101065.50;5079672;27;70444;-40
2023/02/07 01:19:19;;;;;;;;;;;;;;;29.12;61.93;101068.00;5081499;27;66353;-41
2023/02/07 01:21:50;;;;;;;;;;;;;;;29.13;61.87;101074.25;5097203;27;69228;-40
2023/02/07 01:24:20;;;;;;;;;;;;;;;29.14;61.60;101063.25;5094003;27;65931;-41
2023/02/07 01:26:51;;;;;;;;;;;;;;;29.17;61.13;101075.50;5077654;27;69565;-40
2023/02/07 01:29:21;;;;;;;;;;;;;;;29.18;61.10;101074.47;5091821;27;66799;-39
2023/02/07 01:31:52;;;;;;;;;;;;;;;29.19;61.18;101081.53;5091254;27;69051;-40
2023/02/07 01:34:22;;;;;;;;;;;;;;;29.22;60.87;101081.13;5095819;27;66186;-40
2023/02/07 01:36:52;;;;;;;;;;;;;;;29.23;61.15;101090.91;5078676;27;69015;-39
2023/02/07 01:39:23;;;;;;;;;;;;;;;29.24;60.61;101087.16;5093164;27;66532;-39
2023/02/07 01:41:53;;;;;;;;;;;;;;;29.26;60.84;101087.78;5095396;27;69748;-39
2023/02/07 01:44:23;;;;;;;;;;;;;;;29.26;60.79;101095.88;5072306;27;66109;-41
2023/02/07 01:46:54;;;;;;;;;;;;;;;29.28;60.70;101088.44;5075323;27;69686;-40
2023/02/07 01:49:28;;;;;;;;;;;;;;;29.30;60.26;101097.13;5093173;27;66579;-40
2023/02/07 01:52:09;;;;;;;;;;;;;;;29.32;60.12;101088.84;5075405;27;70597;-41
2023/02/07 01:54:40;;;;;;;;;;;;;;;29.34;60.03;101092.19;5097912;27;66341;-40
2023/02/07 01:57:13;;;;;;;;;;;;;;;29.36;60.37;101093.63;5064245;27;70367;-40
2023/02/07 01:59:44;;;;;;;;;;;;;;;29.37;60.17;101083.66;5079168;27;67227;-39
2023/02/07 02:02:16;;;;;;;;;;;;;;;29.39;60.40;101093.22;5093453;27;71472;-40
2023/02/07 02:04:46;;;;;;;;;;;;;;;29.40;59.70;101091.34;5097839;27;65608;-40
2023/02/07 02:07:18;;;;;;;;;;;;;;;29.43;59.67;101092.81;5088073;27;70436;-39
2023/02/07 02:09:48;;;;;;;;;;;;;;;29.44;59.74;101098.00;5098300;27;66713;-41
2023/02/07 02:12:27;;;;;;;;;;;;;;;29.47;59.98;101099.47;5076541;27;69471;-40
2023/02/07 02:14:57;;;;;;;;;;;;;;;29.48;59.93;101099.25;5100823;27;66017;-40
2023/02/07 02:17:49;;;;;;;;;;;;;;;29.50;59.61;101094.47;5060121;27;68745;-41
2023/02/07 02:20:38;;;;;;;;;;;;;;;29.51;59.38;101093.44;5099772;27;66385;-42
2023/02/07 02:23:20;;;;;;;;;;;;;;;29.56;59.82;101103.63;5088870;27;70640;-41
2023/02/07 02:26:08;;;;;;;;;;;;;;;29.57;59.39;101100.72;5089761;27;67019;-40
2023/02/07 02:28:54;;;;;;;;;;;;;;;29.60;59.39;101099.47;5074457;27;70391;-52
2023/02/07 02:31:24;;;;;;;;;;;;;;;29.63;59.72;101101.78;5093330;27;66187;-40
2023/02/07 02:34:17;;;;;;;;;;;;;;;29.65;59.26;101097.03;5097205;27;69471;-42
2023/02/07 02:36:53;;;;;;;;;;;;;;;29.67;59.51;101100.38;5103430;27;65429;-41
2023/02/07 02:39:32;;;;;;;;;;;;;;;29.69;59.26;101095.56;5072868;27;69312;-40
2023/02/07 02:42:26;;;;;;;;;;;;;;;29.72;58.92;101089.72;5081898;27;66251;-39
2023/02/07 02:44:56;;;;;;;;;;;;;;;29.74;59.10;101093.06;5096025;27;70657;-40
2023/02/07 02:47:28;;;;;;;;;;;;;;;29.76;58.91;101085.59;5078977;27;65728;-40
2023/02/07 02:49:58;;;;;;;;;;;;;;;29.79;58.87;101085.16;5097847;27;70758;-40
2023/02/07 02:52:28;;;;;;;;;;;;;;;29.81;59.11;101088.50;5074202;27;66582;-40
2023/02/07 02:55:26;;;;;;;;;;;;;;;29.83;59.15;101083.69;5068868;27;70466;-40
2023/02/07 02:58:06;;;;;;;;;;;;;;;29.88;58.98;101076.84;5091676;27;66320;-40
2023/02/07 03:00:42;;;;;;;;;;;;;;;29.91;58.44;101073.72;5068780;27;69671;-41
2023/02/07 03:03:22;;;;;;;;;;;;;;;29.93;58.45;101068.94;5098730;27;66693;-39
2023/02/07 03:05:58;;;;;;;;;;;;;;;29.94;58.43;101065.19;5075535;27;69605;-40
2023/02/07 03:08:47;;;;;;;;;;;;;;;29.97;58.90;101070.19;5095093;27;66764;-41
2023/02/07 03:11:20;;;;;;;;;;;;;;;29.99;58.85;101057.28;5098764;27;69795;-40
2023/02/07 03:14:13;;;;;;;;;;;;;;;30.02;58.41;101051.44;5076829;27;66801;-42
2023/02/07 03:16:51;;;;;;;;;;;;;;;30.04;58.38;101039.38;5091171;27;70339;-41
2023/02/07 03:19:32;;;;;;;;;;;;;;;30.08;58.12;101045.19;5080509;27;67263;-43
2023/02/07 03:22:09;;;;;;;;;;;;;;;30.11;58.46;101039.34;5094352;27;70122;-40
2023/02/07 03:24:48;;;;;;;;;;;;;;;30.13;57.79;101031.88;5099146;27;66074;-40
2023/02/07 03:27:21;;;;;;;;;;;;;;;30.16;58.09;101042.25;5074797;27;70615;-40
2023/02/07 03:29:56;;;;;;;;;;;;;;;30.17;57.82;101033.13;5094995;27;66750;-40
2023/02/07 03:32:29;;;;;;;;;;;;;;;30.21;57.75;101028.09;5096496;27;70426;-41
2023/02/07 03:35:05;;;;;;;;;;;;;;;30.23;57.84;101029.59;5095744;27;64833;-40
2023/02/07 03:37:38;;;;;;;;;;;;;;;30.25;57.95;101018.53;5080111;27;70266;-39
2023/02/07 03:40:10;;;;;;;;;;;;;;;30.27;57.63;101016.47;5094363;27;65611;-40
2023/02/07 03:42:49;;;;;;;;;;;;;;;30.28;57.75;101018.97;5091413;27;70027;-40
2023/02/07 03:45:20;;;;;;;;;;;;;;;30.32;57.24;101005.00;5098455;27;66031;-40
2023/02/07 03:47:51;;;;;;;;;;;;;;;30.33;57.65;101003.94;5098185;27;70509;-42
2023/02/07 03:50:21;;;;;;;;;;;;;;;30.37;57.40;101005.16;5094343;27;66224;-40
2023/02/07 03:52:51;;;;;;;;;;;;;;;30.37;57.04;100997.91;5098796;27;70907;-40
2023/02/07 03:55:21;;;;;;;;;;;;;;;30.39;56.71;100981.44;5088349;27;66963;-41
2023/02/07 03:57:52;;;;;;;;;;;;;;;30.42;56.83;100991.84;5082963;27;69745;-43
2023/02/07 04:00:22;;;;;;;;;;;;;;;30.43;56.74;100977.28;5075408;27;66255;-41
2023/02/07 04:02:52;;;;;;;;;;;;;;;30.44;57.13;100978.91;5095330;27;70347;-41
2023/02/07 04:05:22;;;;;;;;;;;;;;;30.46;57.09;100982.25;5101468;27;65991;-40
2023/02/07 04:07:52;;;;;;;;;;;;;;;30.47;57.22;100973.06;5093804;27;69987;-41
2023/02/07 04:10:22;;;;;;;;;;;;;;;30.49;56.94;100973.69;5084108;27;66724;-41
2023/02/07 04:12:53;;;;;;;;;;;;;;;30.50;57.11;100961.81;5086432;27;69865;-40
2023/02/07 04:15:23;;;;;;;;;;;;;;;30.53;56.78;100960.56;5100193;27;66010;-43
2023/02/07 04:17:53;;;;;;;;;;;;;;;30.54;56.82;100956.81;5088611;27;70250;-40
2023/02/07 04:20:23;;;;;;;;;;;;;;;30.55;56.49;100953.06;5095260;27;65598;-40
2023/02/07 04:22:54;;;;;;;;;;;;;;;30.56;56.55;100960.94;5093294;27;69761;-41
2023/02/07 04:25:24;;;;;;;;;;;;;;;30.58;56.23;100953.44;5083025;27;64880;-41
2023/02/07 04:27:54;;;;;;;;;;;;;;;30.60;56.32;100951.34;5100639;27;70410;-41
2023/02/07 04:30:24;;;;;;;;;;;;;;;30.62;56.55;100949.28;5100251;27;66917;-42
2023/02/07 04:32:54;;;;;;;;;;;;;;;30.63;56.32;100944.69;5101910;27;70372;-40
2023/02/07 04:35:24;;;;;;;;;;;;;;;30.67;55.98;100945.88;5092850;27;66067;-40
2023/02/07 04:37:55;;;;;;;;;;;;;;;30.69;56.32;100935.69;5099552;27;70060;-43
2023/02/07 04:40:25;;;;;;;;;;;;;;;30.71;56.22;100937.13;5100052;27;66992;-41
2023/02/07 04:42:55;;;;;;;;;;;;;;;30.73;56.00;100935.03;5100020;27;69701;-39
2023/02/07 04:45:25;;;;;;;;;;;;;;;30.76;56.15;100930.22;5100542;27;67108;-41
2023/02/07 04:47:55;;;;;;;;;;;;;;;30.78;56.16;100923.53;5100287;27;70108;-41
2023/02/07 04:50:25;;;;;;;;;;;;;;;30.80;56.22;100923.34;5088083;27;66213;-41
2023/02/07 04:52:56;;;;;;;;;;;;;;;30.84;56.07;100913.72;5098237;27;70241;-42
2023/02/07 04:55:26;;;;;;;;;;;;;;;30.86;56.05;100919.75;5095657;27;66428;-41
2023/02/07 04:57:56;;;;;;;;;;;;;;;30.87;55.82;100905.16;5091460;27;70159;-42
2023/02/07 05:00:26;;;;;;;;;;;;;;;30.90;55.86;100912.88;5099101;27;65665;-43
2023/02/07 05:02:56;;;;;;;;;;;;;;;30.91;55.46;100909.13;5098903;27;70268;-41
2023/02/07 05:05:28;;;;;;;;;;;;;;;30.93;56.05;100902.44;5097314;27;65095;-41
2023/02/07 05:07:58;;;;;;;;;;;;;;;30.95;55.45;100894.06;5092992;27;69135;-41
2023/02/07 05:10:29;;;;;;;;;;;;;;;30.97;55.50;100894.69;5094793;27;66278;-40
2023/02/07 05:12:59;;;;;;;;;;;;;;;30.99;55.19;100894.47;5094202;27;69833;-41
2023/02/07 05:15:29;;;;;;;;;;;;;;;31.02;55.59;100884.00;5091968;27;65815;-43
2023/02/07 05:18:00;;;;;;;;;;;;;;;31.03;55.22;100874.81;5094009;27;69905;-42
2023/02/07 05:20:30;;;;;;;;;;;;;;;31.05;55.04;100871.91;5093125;27;66901;-41
2023/02/07 05:23:00;;;;;;;;;;;;;;;31.06;55.49;100868.97;5095051;27;70093;-41
2023/02/07 05:25:30;;;;;;;;;;;;;;;31.09;55.27;100873.97;5094561;27;66297;-41
2023/02/07 05:28:00;;;;;;;;;;;;;;;31.10;55.08;100863.94;5093620;27;70071;-40
2023/02/07 05:30:30;;;;;;;;;;;;;;;31.11;55.13;100863.72;5096888;27;66611;-41
2023/02/07 05:33:04;;;;;;;;;;;;;;;31.12;55.09;100857.25;5092898;27;69083;-40
2023/02/07 05:35:36;;;;;;;;;;;;;;;31.15;54.95;100851.38;5091178;27;66997;-41
2023/02/07 05:38:08;;;;;;;;;;;;;;;31.16;55.26;100847.63;5095633;27;69319;-39
2023/02/07 05:40:39;;;;;;;;;;;;;;;31.19;54.75;100842.81;5100361;27;65711;-41
2023/02/07 05:43:10;;;;;;;;;;;;;;;31.22;55.01;100839.66;5095725;27;69841;-41
2023/02/07 05:45:40;;;;;;;;;;;;;;;31.23;55.16;100836.72;5088123;27;66858;-41
2023/02/07 05:48:11;;;;;;;;;;;;;;;31.26;55.33;100830.00;5096617;27;69483;-40
2023/02/07 05:50:41;;;;;;;;;;;;;;;31.27;55.01;100831.69;5086247;27;66164;-40
2023/02/07 05:53:12;;;;;;;;;;;;;;;31.30;54.84;100817.69;5081615;27;69685;-41
2023/02/07 05:55:42;;;;;;;;;;;;;;;31.32;54.90;100813.69;5094442;27;67054;-40
2023/02/07 05:58:12;;;;;;;;;;;;;;;31.33;54.88;100814.53;5088934;27;70618;-40
2023/02/07 06:00:42;;;;;;;;;;;;;;;31.34;55.05;100814.31;5097756;27;65645;-42
2023/02/07 06:03:12;;;;;;;;;;;;;;;31.38;54.88;100806.56;5098741;27;70056;-42
2023/02/07 06:05:42;;;;;;;;;;;;;;;31.39;54.94;100808.22;5089649;27;66969;-40
2023/02/07 06:08:13;;;;;;;;;;;;;;;31.41;54.83;100794.47;5094676;27;69199;-41
2023/02/07 06:10:43;;;;;;;;;;;;;;;31.44;54.50;100794.00;5095839;27;66696;-41
2023/02/07 06:13:13;;;;;;;;;;;;;;;31.46;54.72;100792.72;5095848;27;70485;-41
2023/02/07 06:15:43;;;;;;;;;;;;;;;31.49;54.56;100792.28;5092775;27;66171;-40
2023/02/07 06:18:13;;;;;;;;;;;;;;;31.52;54.43;100783.69;5099760;27;70249;-41
2023/02/07 06:20:44;;;;;;;;;;;;;;;31.55;54.74;100775.09;5080226;27;65690;-39
2023/02/07 06:23:14;;;;;;;;;;;;;;;31.58;54.24;100768.38;5099337;27;70684;-41
2023/02/07 06:25:45;;;;;;;;;;;;;;;31.58;54.22;100761.06;5095790;27;66680;-40
2023/02/07 06:28:15;;;;;;;;;;;;;;;31.63;54.19;100762.28;5081896;27;69777;-41
2023/02/07 06:30:45;;;;;;;;;;;;;;;31.65;54.35;100754.72;5090719;27;67072;-40
2023/02/07 06:33:16;;;;;;;;;;;;;;;31.67;54.31;100744.50;5096521;27;70337;-41
2023/02/07 06:35:47;;;;;;;;;;;;;;;31.69;54.39;100731.53;5095189;27;65991;-44
2023/02/07 06:38:17;;;;;;;;;;;;;;;31.72;54.27;100737.31;5091128;27;69759;-41
2023/02/07 06:40:47;;;;;;;;;;;;;;;31.75;54.38;100725.19;5094727;27;66754;-41
2023/02/07 06:43:19;;;;;;;;;;;;;;;31.76;54.10;100716.84;5097743;27;70209;-43
2023/02/07 06:45:49;;;;;;;;;;;;;;;31.80;54.34;100717.19;5093967;27;66689;-41
2023/02/07 06:48:19;;;;;;;;;;;;;;;31.54;54.11;100670.41;5067562;27;70130;-42
2023/02/07 06:50:50;;;;;;;;;;;;;;;31.85;54.14;100711.91;5098188;27;66240;-42
2023/02/07 06:53:20;;;;;;;;;;;;;;;31.87;54.26;100700.81;5097497;27;70673;-40
2023/02/07 06:55:50;;;;;;;;;;;;;;;31.91;54.03;100707.44;5088022;27;66557;-42
2023/02/07 06:58:21;;;;;;;;;;;;;;;31.93;53.91;100697.19;5093322;27;70019;-41
2023/02/07 07:00:51;;;;;;;;;;;;;;;31.96;54.00;100700.28;5093594;27;66629;-41
2023/02/07 07:03:27;;;;;;;;;;;;;;;31.98;54.09;100692.75;5075507;27;70096;-41
2023/02/07 07:05:58;;;;;;;;;;;;;;;32.02;54.09;100680.38;5096684;27;65615;-41
2023/02/07 07:08:28;;;;;;;;;;;;;;;32.05;54.23;100677.19;5096410;27;70238;-40
2023/02/07 07:10:59;;;;;;;;;;;;;;;32.10;53.83;100678.38;5099882;27;67030;-41
2023/02/07 07:13:29;;;;;;;;;;;;;;;32.12;54.09;100681.66;5087234;27;69792;-41
2023/02/07 07:15:59;;;;;;;;;;;;;;;32.13;53.71;100676.03;5090242;27;65722;-41
2023/02/07 07:18:30;;;;;;;;;;;;;;;32.16;53.78;100667.41;5068286;28;70134;-44
2023/02/07 07:21:00;;;;;;;;;;;;;;;32.19;53.85;100671.56;5096114;27;66384;-40
2023/02/07 07:23:30;;;;;;;;;;;;;;;32.23;53.77;100678.16;5091068;27;70592;-42
2023/02/07 07:26:01;;;;;;;;;;;;;;;32.25;53.87;100676.84;5097976;27;67165;-41
2023/02/07 07:28:31;;;;;;;;;;;;;;;32.30;53.75;100667.19;5095222;27;69748;-41
2023/02/07 07:31:02;;;;;;;;;;;;;;;32.32;53.98;100665.91;5096263;27;66097;-43
2023/02/07 07:33:33;;;;;;;;;;;;;;;32.35;53.71;100656.47;5100364;27;70286;-40
2023/02/07 07:36:03;;;;;;;;;;;;;;;32.38;53.70;100654.09;5097719;27;66658;-40
2023/02/07 07:38:36;;;;;;;;;;;;;;;32.40;53.70;100657.41;5096371;27;69819;-40
2023/02/07 07:41:06;;;;;;;;;;;;;;;32.42;53.50;100649.84;5098279;27;66241;-40
2023/02/07 07:43:38;;;;;;;;;;;;;;;32.43;53.54;100653.38;5102223;27;70233;-43
2023/02/07 07:46:09;;;;;;;;;;;;;;;32.46;53.37;100650.25;5095179;27;67383;-43
2023/02/07 07:48:39;;;;;;;;;;;;;;;32.48;53.65;100658.94;5100126;27;70572;-42
2023/02/07 07:51:10;;;;;;;;;;;;;;;32.51;53.58;100652.22;5100258;27;66139;-41
2023/02/07 07:53:40;;;;;;;;;;;;;;;32.52;53.42;100654.72;5096365;27;69867;-40
2023/02/07 07:56:36;;;;;;;;;;;;;;;32.55;53.32;100661.56;5102474;27;67527;-40
2023/02/07 07:59:31;;;;;;;;;;;;;;;32.59;53.28;100655.41;5090049;27;70931;-41
2023/02/07 08:02:02;;;;;;;;;;;;;;;32.61;53.16;100660.59;5102480;27;66032;-41
2023/02/07 08:04:32;;;;;;;;;;;;;;;32.62;53.27;100649.50;5093839;27;70954;-43
2023/02/07 08:07:28;;;;;;;;;;;;;;;32.65;53.08;100654.47;5093973;27;66935;-41
2023/02/07 08:09:58;;;;;;;;;;;;;;;32.70;53.32;100651.03;5084660;27;71158;-40
2023/02/07 08:12:28;;;;;;;;;;;;;;;32.72;52.99;100649.72;5092212;27;66980;-42
2023/02/07 08:14:59;;;;;;;;;;;;;;;32.75;52.97;100659.28;5089763;27;69385;-41
2023/02/07 08:17:54;;;;;;;;;;;;;;;32.79;53.09;100655.03;5094794;27;66957;-42
2023/02/07 08:20:50;;;;;;;;;;;;;;;32.82;53.01;100638.28;5096234;27;70932;-41
2023/02/07 08:23:21;;;;;;;;;;;;;;;32.85;52.90;100643.22;5087617;27;65915;-40
2023/02/07 08:25:51;;;;;;;;;;;;;;;32.88;52.94;100639.19;5067538;27;69831;-41
2023/02/07 08:28:47;;;;;;;;;;;;;;;32.89;52.80;100633.50;5095632;27;67561;-41
2023/02/07 08:31:18;;;;;;;;;;;;;;;32.94;52.96;100636.34;5080179;27;70349;-41
2023/02/07 08:33:48;;;;;;;;;;;;;;;32.98;52.64;100641.28;5094145;27;66414;-40
2023/02/07 08:36:18;;;;;;;;;;;;;;;32.99;52.70;100642.94;5081137;27;69733;-43
2023/02/07 08:38:49;;;;;;;;;;;;;;;33.02;52.80;100635.16;5095457;27;66896;-41
2023/02/07 08:41:19;;;;;;;;;;;;;;;33.05;52.62;100644.75;5092492;27;69131;-41
2023/02/07 08:43:51;;;;;;;;;;;;;;;33.07;52.58;100650.72;5086050;27;65264;-43
2023/02/07 08:46:21;;;;;;;;;;;;;;;33.10;52.53;100648.38;5075411;27;70256;-40
2023/02/07 08:48:52;;;;;;;;;;;;;;;33.11;52.44;100641.88;5098094;27;65554;-41
2023/02/07 08:51:22;;;;;;;;;;;;;;;33.15;52.48;100643.06;5095019;27;69788;-41
2023/02/07 08:53:53;;;;;;;;;;;;;;;33.17;52.37;100656.38;5096755;27;65303;-42
2023/02/07 08:56:23;;;;;;;;;;;;;;;33.20;52.41;100658.63;5089782;27;70648;-40
2023/02/07 08:58:53;;;;;;;;;;;;;;;33.25;52.11;100653.28;5089826;27;65558;-41
2023/02/07 09:01:24;;;;;;;;;;;;;;;33.28;52.32;100663.69;5095907;27;69746;-44
2023/02/07 09:03:55;;;;;;;;;;;;;;;33.31;52.01;100663.19;5093973;27;67771;-42
2023/02/07 09:06:25;;;;;;;;;;;;;;;33.34;52.16;100668.13;5097120;27;69233;-42
2023/02/07 09:08:57;;;;;;;;;;;;;;;33.36;52.07;100676.88;5092663;27;66543;-40
2023/02/07 09:11:28;;;;;;;;;;;;;;;33.39;52.05;100664.69;5090804;27;68740;-41
2023/02/07 09:13:59;;;;;;;;;;;;;;;33.42;52.27;100671.56;5097585;27;66205;-41
2023/02/07 09:16:30;;;;;;;;;;;;;;;33.18;53.49;100681.66;5089346;27;69373;-41
2023/02/07 09:19:00;;;;;;;;;;;;;;;32.99;54.12;100686.41;5081810;27;66325;-41
2023/02/07 09:21:32;;;;;;;;;;;;;;;32.86;54.50;100688.31;5091737;27;69267;-42
2023/02/07 09:24:02;;;;;;;;;;;;;;;32.79;54.77;100693.06;5089960;27;65574;-42
2023/02/07 09:26:34;;;;;;;;;;;;;;;32.72;55.50;100695.06;5097527;27;70002;-41
2023/02/07 09:29:10;;;;;;;;;;;;;;;32.72;55.63;100703.22;5078588;27;66698;-42
2023/02/07 09:31:40;;;;;;;;;;;;;;;32.70;55.78;100699.91;5082947;27;70323;-40
2023/02/07 09:34:10;;;;;;;;;;;;;;;32.67;55.80;100706.66;5076637;27;65039;-40
2023/02/07 09:36:42;;;;;;;;;;;;;;;32.67;55.86;100703.09;5100013;27;70355;-41
2023/02/07 09:39:13;;;;;;;;;;;;;;;32.64;55.97;100709.00;5082438;27;66101;-42
2023/02/07 09:42:22;;;;;;;;;;;;;;;32.60;56.35;100710.56;5081219;27;70644;-42
2023/02/07 09:44:55;;;;;;;;;;;;;;;32.58;56.32;100704.53;5035705;28;66920;-40
2023/02/07 09:47:26;;;;;;;;;;;;;;;32.60;56.22;100716.81;5021079;28;69096;-41
2023/02/07 09:49:59;;;;;;;;;;;;;;;32.54;56.88;100717.75;5051018;27;65150;-48
2023/02/07 09:52:36;;;;;;;;;;;;;;;32.55;57.71;100729.44;5092799;27;70144;-42
2023/02/07 09:55:14;;;;;;;;;;;;;;;32.56;58.10;100723.75;5092946;27;66458;-40
2023/02/07 09:57:46;;;;;;;;;;;;;;;32.58;57.80;100726.25;5081194;27;69960;-41
2023/02/07 10:00:19;;;;;;;;;;;;;;;32.54;58.44;100730.50;5073439;27;64502;-41
2023/02/07 10:02:57;;;;;;;;;;;;;;;32.53;58.07;100728.84;5090905;27;69299;-42
2023/02/07 10:05:53;;;;;;;;;;;;;;;32.47;57.35;100717.88;5091091;27;66843;-42
2023/02/07 10:08:24;;;;;;;;;;;;;;;32.46;56.72;100727.06;5092582;27;70312;-41
2023/02/07 10:11:14;;;;;;;;;;;;;;;32.45;56.86;100728.09;5079214;27;67041;-42
2023/02/07 10:13:56;;;;;;;;;;;;;;;32.43;56.80;100732.09;5089340;27;70350;-41
2023/02/07 10:16:27;;;;;;;;;;;;;;;32.42;56.71;100733.16;5091426;27;66614;-43
2023/02/07 10:19:18;;;;;;;;;;;;;;;32.41;56.07;100735.06;5096233;27;69424;-42
2023/02/07 10:22:05;;;;;;;;;;;;;;;32.40;55.53;100730.72;5057770;27;65909;-41
2023/02/07 10:24:54;;;;;;;;;;;;;;;32.39;55.87;100748.03;5096637;27;69376;-39
2023/02/07 10:27:29;;;;;;;;;;;;;;;32.36;55.89;100759.38;5094198;27;66049;-41
2023/02/07 10:30:07;;;;;;;;;;;;;;;32.35;55.78;100757.72;5097768;27;69035;-42
2023/02/07 10:32:39;;;;;;;;;;;;;;;32.34;56.26;100761.47;5098601;27;65962;-40
2023/02/07 10:35:28;;;;;;;;;;;;;;;32.24;56.32;100758.53;5100755;27;71159;-41
2023/02/07 10:38:00;;;;;;;;;;;;;;;32.21;56.71;100765.25;5094079;27;66961;-41
2023/02/07 10:40:37;;;;;;;;;;;;;;;32.15;57.57;100768.91;5097855;27;70813;-40
2023/02/07 10:43:12;;;;;;;;;;;;;;;32.09;57.64;100764.38;5103162;27;66938;-42
2023/02/07 10:45:44;;;;;;;;;;;;;;;32.03;57.41;100766.13;5101864;27;69020;-41
2023/02/07 10:48:22;;;;;;;;;;;;;;;32.01;57.41;100773.69;5100733;27;66459;-43
2023/02/07 10:50:53;;;;;;;;;;;;;;;31.94;57.79;100772.94;5096336;27;69079;-41
2023/02/07 10:53:42;;;;;;;;;;;;;;;31.93;57.77;100782.16;5074543;27;65321;-42
2023/02/07 10:56:25;;;;;;;;;;;;;;;31.88;57.96;100786.56;5056496;27;69612;-41
2023/02/07 10:58:56;;;;;;;;;;;;;;;31.83;58.19;100784.53;5094655;27;65980;-42
2023/02/07 11:01:27;;;;;;;;;;;;;;;31.86;58.49;100792.22;5095138;27;69994;-41
2023/02/07 11:03:57;;;;;;;;;;;;;;;31.89;58.48;100796.34;5096175;27;65037;-40
2023/02/07 11:06:29;;;;;;;;;;;;;;;31.95;58.67;100790.03;5094107;27;70647;-39
2023/02/07 11:09:18;;;;;;;;;;;;;;;32.17;57.95;100787.63;5094497;27;66577;-39
2023/02/07 11:11:49;;;;;;;;;;;;;;;32.31;57.48;100799.94;5094026;27;70366;-39
2023/02/07 11:14:25;;;;;;;;;;;;;;;32.39;57.12;100805.06;5096267;27;66064;-41
2023/02/07 11:16:56;;;;;;;;;;;;;;;32.39;57.24;100802.34;5094537;27;70179;-42
2023/02/07 11:19:30;;;;;;;;;;;;;;;32.24;57.93;100802.78;5094978;27;64847;-41
2023/02/07 11:22:16;;;;;;;;;;;;;;;32.15;58.20;100806.03;5094209;27;69783;-40
2023/02/07 11:24:47;;;;;;;;;;;;;;;32.10;58.34;100808.63;5095695;27;66639;-41
2023/02/07 11:27:20;;;;;;;;;;;;;;;32.05;58.57;100812.03;5097133;27;69006;-42
2023/02/07 11:29:53;;;;;;;;;;;;;;;32.04;58.49;100816.63;5095188;27;65064;-40
2023/02/07 11:32:25;;;;;;;;;;;;;;;32.03;58.64;100820.38;5079028;27;69361;-41
2023/02/07 11:34:57;;;;;;;;;;;;;;;32.03;58.52;100817.66;5095740;27;65442;-42
2023/02/07 11:37:33;;;;;;;;;;;;;;;32.00;58.82;100807.28;5096486;27;70214;-41
2023/02/07 11:40:18;;;;;;;;;;;;;;;31.98;59.08;100822.97;5096983;27;66480;-40
2023/02/07 11:43:02;;;;;;;;;;;;;;;31.97;58.97;100829.44;5079162;27;70049;-40
2023/02/07 11:45:35;;;;;;;;;;;;;;;31.96;59.44;100827.81;5093570;27;66886;-41
2023/02/07 11:48:06;;;;;;;;;;;;;;;31.99;59.44;100829.22;5094802;27;70531;-42
2023/02/07 11:50:40;;;;;;;;;;;;;;;31.96;59.76;100825.09;5077911;27;65208;-42
2023/02/07 11:53:23;;;;;;;;;;;;;;;31.97;59.44;100837.59;5092931;27;69509;-39
2023/02/07 11:55:54;;;;;;;;;;;;;;;31.94;59.46;100832.63;5096814;27;63974;-40
2023/02/07 11:58:30;;;;;;;;;;;;;;;31.93;59.52;100830.13;5099341;27;69982;-44
2023/02/07 12:01:02;;;;;;;;;;;;;;;31.90;59.50;100835.97;5098192;27;67092;-38
2023/02/07 12:03:51;;;;;;;;;;;;;;;31.91;59.45;100845.78;5097216;27;71109;-40
2023/02/07 12:06:23;;;;;;;;;;;;;;;31.86;59.68;100848.34;5099651;27;66672;-40
2023/02/07 12:08:54;;;;;;;;;;;;;;;31.85;59.60;100844.81;5098003;27;70630;-41
2023/02/07 12:11:27;;;;;;;;;;;;;;;31.81;59.60;100843.59;5082890;27;66523;-40
2023/02/07 12:14:09;;;;;;;;;;;;;;;31.83;59.89;100850.47;5098401;27;70336;-42
2023/02/07 12:16:48;;;;;;;;;;;;;;;31.86;60.43;100848.34;5077729;27;67128;-40
2023/02/07 12:19:22;;;;;;;;;;;;;;;31.81;60.64;100854.44;5098554;27;70215;-42
2023/02/07 12:22:01;;;;;;;;;;;;;;;31.82;60.87;100856.13;5076879;27;66817;-40
2023/02/07 12:24:38;;;;;;;;;;;;;;;31.84;60.96;100870.28;5096226;27;69315;-41
2023/02/07 12:27:16;;;;;;;;;;;;;;;31.85;62.31;100876.56;5063968;27;66284;-38
2023/02/07 12:30:04;;;;;;;;;;;;;;;31.80;62.74;100875.34;5093406;27;70291;-38
2023/02/07 12:32:53;;;;;;;;;;;;;;;31.79;62.92;100873.69;5091369;27;66580;-37
2023/02/07 12:35:26;;;;;;;;;;;;;;;31.80;63.01;100879.94;5073926;27;69533;-39
2023/02/07 12:38:00;;;;;;;;;;;;;;;31.80;63.07;100879.94;5093578;27;65374;-39
2023/02/07 12:40:33;;;;;;;;;;;;;;;31.82;63.45;100883.25;5091736;27;69776;-39
2023/02/07 12:43:10;;;;;;;;;;;;;;;31.81;63.73;100887.81;5102115;27;66979;-39
2023/02/07 12:45:59;;;;;;;;;;;;;;;31.78;64.66;100882.84;5090844;27;69427;-40
2023/02/07 12:48:32;;;;;;;;;;;;;;;31.77;64.45;100892.06;5077070;27;65994;-38
2023/02/07 12:51:21;;;;;;;;;;;;;;;31.75;64.77;100906.91;5087346;27;69520;-40
2023/02/07 12:54:07;;;;;;;;;;;;;;;31.76;64.93;100909.41;5067670;27;66221;-40
2023/02/07 12:57:12;;;;;;;;;;;;;;;31.75;64.47;100915.03;5088135;27;70579;-41
2023/02/07 12:59:56;;;;;;;;;;;;;;;31.71;64.90;100927.41;5029724;28;66806;-41
2023/02/07 13:02:49;;;;;;;;;;;;;;;31.71;64.74;100932.81;5073083;27;69248;-40
2023/02/07 13:05:19;;;;;;;;;;;;;;;31.68;64.92;100934.09;5055477;27;66718;-39
2023/02/07 13:07:55;;;;;;;;;;;;;;;31.69;64.66;100937.63;5099936;27;69754;-40
2023/02/07 13:10:30;;;;;;;;;;;;;;;31.67;64.79;100937.84;5088528;27;66449;-40